sensor_id;sensor_type;location;lat;lon;timestamp;pressure;altitude;pressure_sealevel;temperature;humidity
61528;BME280;47395;42.032;-8.634;2022-10-16T00:01:45;100684.47;;;19.06;88.97
61528;BME280;47395;42.032;-8.634;2022-10-16T00:03:46;100681.69;;;19.08;88.86
61528;BME280;47395;42.032;-8.634;2022-10-16T00:05:47;100688.56;;;19.10;88.96
61528;BME280;47395;42.032;-8.634;2022-10-16T00:07:48;100680.19;;;19.15;88.59
61528;BME280;47395;42.032;-8.634;2022-10-16T00:09:49;100673.41;;;19.11;88.62
61528;BME280;47395;42.032;-8.634;2022-10-16T00:11:50;100671.56;;;19.11;89.05
61528;BME280;47395;42.032;-8.634;2022-10-16T00:13:56;100672.81;;;19.07;89.22
61528;BME280;47395;42.032;-8.634;2022-10-16T00:15:58;100666.66;;;19.16;88.63
61528;BME280;47395;42.032;-8.634;2022-10-16T00:17:59;100665.19;;;19.02;89.07
61528;BME280;47395;42.032;-8.634;2022-10-16T00:20:01;100661.44;;;19.05;88.84
61528;BME280;47395;42.032;-8.634;2022-10-16T00:22:01;100665.78;;;19.06;89.02
61528;BME280;47395;42.032;-8.634;2022-10-16T00:24:06;100665.53;;;19.09;88.98
61528;BME280;47395;42.032;-8.634;2022-10-16T00:26:11;100660.19;;;19.09;89.20
61528;BME280;47395;42.032;-8.634;2022-10-16T00:28:13;100657.97;;;19.14;88.74
61528;BME280;47395;42.032;-8.634;2022-10-16T00:30:13;100651.63;;;19.15;88.60
61528;BME280;47395;42.032;-8.634;2022-10-16T00:32:14;100652.50;;;19.16;88.50
61528;BME280;47395;42.032;-8.634;2022-10-16T00:34:15;100650.66;;;19.16;88.90
61528;BME280;47395;42.032;-8.634;2022-10-16T00:36:20;100648.66;;;19.09;88.78
61528;BME280;47395;42.032;-8.634;2022-10-16T00:38:21;100647.41;;;19.13;88.79
61528;BME280;47395;42.032;-8.634;2022-10-16T00:40:22;100650.94;;;19.13;88.84
61528;BME280;47395;42.032;-8.634;2022-10-16T00:42:22;100645.47;;;19.15;88.65
61528;BME280;47395;42.032;-8.634;2022-10-16T00:44:53;100644.59;;;19.14;88.98
61528;BME280;47395;42.032;-8.634;2022-10-16T00:46:54;100645.59;;;19.13;88.79
61528;BME280;47395;42.032;-8.634;2022-10-16T00:49:00;100637.28;;;19.16;88.75
61528;BME280;47395;42.032;-8.634;2022-10-16T00:51:02;100636.84;;;19.11;89.16
61528;BME280;47395;42.032;-8.634;2022-10-16T00:53:04;100635.28;;;19.09;89.06
61528;BME280;47395;42.032;-8.634;2022-10-16T00:55:06;100635.47;;;19.17;88.85
61528;BME280;47395;42.032;-8.634;2022-10-16T00:57:08;100641.38;;;19.21;88.51
61528;BME280;47395;42.032;-8.634;2022-10-16T00:59:19;100642.44;;;19.29;88.26
61528;BME280;47395;42.032;-8.634;2022-10-16T01:01:21;100630.72;;;19.21;89.23
61528;BME280;47395;42.032;-8.634;2022-10-16T01:03:33;100638.34;;;19.25;88.79
61528;BME280;47395;42.032;-8.634;2022-10-16T01:06:21;100632.94;;;19.15;89.43
61528;BME280;47395;42.032;-8.634;2022-10-16T01:10:57;100624.88;;;19.05;90.23
61528;BME280;47395;42.032;-8.634;2022-10-16T01:13:35;100617.72;;;19.06;90.66
61528;BME280;47395;42.032;-8.634;2022-10-16T01:16:05;100611.88;;;19.12;90.11
61528;BME280;47395;42.032;-8.634;2022-10-16T01:18:16;100609.75;;;19.16;90.39
61528;BME280;47395;42.032;-8.634;2022-10-16T01:20:30;100607.09;;;19.16;90.07
61528;BME280;47395;42.032;-8.634;2022-10-16T01:25:25;100606.69;;;18.99;91.00
61528;BME280;47395;42.032;-8.634;2022-10-16T01:27:33;100602.88;;;19.13;90.38
61528;BME280;47395;42.032;-8.634;2022-10-16T01:29:48;100599.41;;;19.01;90.71
61528;BME280;47395;42.032;-8.634;2022-10-16T01:31:54;100600.97;;;19.04;90.65
61528;BME280;47395;42.032;-8.634;2022-10-16T01:34:05;100598.69;;;18.99;90.75
61528;BME280;47395;42.032;-8.634;2022-10-16T01:36:12;100593.09;;;19.02;90.45
61528;BME280;47395;42.032;-8.634;2022-10-16T01:38:30;100596.03;;;18.99;90.56
61528;BME280;47395;42.032;-8.634;2022-10-16T01:40:35;100597.44;;;19.03;90.31
61528;BME280;47395;42.032;-8.634;2022-10-16T01:42:47;100592.09;;;19.03;90.83
61528;BME280;47395;42.032;-8.634;2022-10-16T01:44:50;100591.59;;;19.10;90.64
61528;BME280;47395;42.032;-8.634;2022-10-16T01:46:53;100593.88;;;19.14;89.93
61528;BME280;47395;42.032;-8.634;2022-10-16T01:48:55;100584.88;;;19.15;89.70
61528;BME280;47395;42.032;-8.634;2022-10-16T01:51:25;100590.75;;;19.09;90.19
61528;BME280;47395;42.032;-8.634;2022-10-16T01:53:27;100577.47;;;18.98;90.59
61528;BME280;47395;42.032;-8.634;2022-10-16T01:55:32;100588.34;;;19.06;90.38
61528;BME280;47395;42.032;-8.634;2022-10-16T01:57:36;100581.50;;;18.92;91.35
61528;BME280;47395;42.032;-8.634;2022-10-16T01:59:43;100586.59;;;18.95;91.54
61528;BME280;47395;42.032;-8.634;2022-10-16T02:01:47;100587.88;;;19.01;91.44
61528;BME280;47395;42.032;-8.634;2022-10-16T02:03:53;100578.72;;;18.94;91.87
61528;BME280;47395;42.032;-8.634;2022-10-16T02:05:56;100578.56;;;18.95;91.60
61528;BME280;47395;42.032;-8.634;2022-10-16T02:07:58;100578.31;;;18.98;91.96
61528;BME280;47395;42.032;-8.634;2022-10-16T02:10:00;100566.25;;;19.04;91.29
61528;BME280;47395;42.032;-8.634;2022-10-16T02:12:08;100571.75;;;19.02;91.16
61528;BME280;47395;42.032;-8.634;2022-10-16T02:14:11;100568.53;;;19.09;90.93
61528;BME280;47395;42.032;-8.634;2022-10-16T02:16:12;100560.47;;;18.99;91.60
61528;BME280;47395;42.032;-8.634;2022-10-16T02:18:14;100566.41;;;19.02;91.77
61528;BME280;47395;42.032;-8.634;2022-10-16T02:20:17;100559.50;;;19.00;91.46
61528;BME280;47395;42.032;-8.634;2022-10-16T02:22:42;100561.75;;;19.04;91.54
61528;BME280;47395;42.032;-8.634;2022-10-16T02:25:24;100556.97;;;18.98;91.88
61528;BME280;47395;42.032;-8.634;2022-10-16T02:28:01;100560.31;;;18.90;92.22
61528;BME280;47395;42.032;-8.634;2022-10-16T02:30:11;100554.97;;;18.90;92.36
61528;BME280;47395;42.032;-8.634;2022-10-16T02:32:16;100551.84;;;18.85;92.37
61528;BME280;47395;42.032;-8.634;2022-10-16T02:34:21;100545.78;;;18.83;92.54
61528;BME280;47395;42.032;-8.634;2022-10-16T02:36:25;100541.44;;;18.82;92.81
61528;BME280;47395;42.032;-8.634;2022-10-16T02:38:26;100541.00;;;18.77;93.12
61528;BME280;47395;42.032;-8.634;2022-10-16T02:40:28;100546.19;;;18.78;92.80
61528;BME280;47395;42.032;-8.634;2022-10-16T02:42:37;100542.81;;;18.76;93.11
61528;BME280;47395;42.032;-8.634;2022-10-16T02:44:38;100540.03;;;18.78;93.16
61528;BME280;47395;42.032;-8.634;2022-10-16T02:46:39;100545.22;;;18.79;92.89
61528;BME280;47395;42.032;-8.634;2022-10-16T02:48:40;100542.41;;;18.81;92.71
61528;BME280;47395;42.032;-8.634;2022-10-16T02:50:40;100539.03;;;18.79;91.89
61528;BME280;47395;42.032;-8.634;2022-10-16T02:52:41;100534.25;;;18.83;92.26
61528;BME280;47395;42.032;-8.634;2022-10-16T02:54:42;100542.28;;;18.83;92.17
61528;BME280;47395;42.032;-8.634;2022-10-16T02:56:43;100534.88;;;18.86;91.79
61528;BME280;47395;42.032;-8.634;2022-10-16T02:58:44;100533.69;;;18.79;92.04
61528;BME280;47395;42.032;-8.634;2022-10-16T03:00:44;100531.91;;;18.89;91.41
61528;BME280;47395;42.032;-8.634;2022-10-16T03:02:45;100530.94;;;18.90;91.37
61528;BME280;47395;42.032;-8.634;2022-10-16T03:04:47;100535.88;;;18.95;90.88
61528;BME280;47395;42.032;-8.634;2022-10-16T03:06:47;100534.44;;;18.91;90.81
61528;BME280;47395;42.032;-8.634;2022-10-16T03:08:48;100528.41;;;18.99;90.75
61528;BME280;47395;42.032;-8.634;2022-10-16T03:10:49;100528.28;;;18.90;90.21
61528;BME280;47395;42.032;-8.634;2022-10-16T03:12:50;100524.06;;;18.88;90.71
61528;BME280;47395;42.032;-8.634;2022-10-16T03:14:51;100537.06;;;18.81;90.91
61528;BME280;47395;42.032;-8.634;2022-10-16T03:16:52;100528.53;;;18.87;90.52
61528;BME280;47395;42.032;-8.634;2022-10-16T03:18:53;100523.34;;;18.86;90.42
61528;BME280;47395;42.032;-8.634;2022-10-16T03:20:53;100519.28;;;18.91;90.42
61528;BME280;47395;42.032;-8.634;2022-10-16T03:22:55;100522.22;;;18.88;90.26
61528;BME280;47395;42.032;-8.634;2022-10-16T03:24:56;100525.16;;;18.85;90.48
61528;BME280;47395;42.032;-8.634;2022-10-16T03:26:57;100516.88;;;18.88;90.04
61528;BME280;47395;42.032;-8.634;2022-10-16T03:28:58;100527.00;;;18.85;90.13
61528;BME280;47395;42.032;-8.634;2022-10-16T03:30:59;100523.03;;;18.79;90.52
61528;BME280;47395;42.032;-8.634;2022-10-16T03:32:59;100529.59;;;18.75;89.94
61528;BME280;47395;42.032;-8.634;2022-10-16T03:35:00;100520.34;;;18.79;90.36
61528;BME280;47395;42.032;-8.634;2022-10-16T03:37:01;100518.66;;;18.78;90.01
61528;BME280;47395;42.032;-8.634;2022-10-16T03:39:02;100523.03;;;18.79;90.29
61528;BME280;47395;42.032;-8.634;2022-10-16T03:41:03;100520.34;;;18.79;90.23
61528;BME280;47395;42.032;-8.634;2022-10-16T03:43:04;100518.94;;;18.75;90.25
61528;BME280;47395;42.032;-8.634;2022-10-16T03:45:05;100517.00;;;18.77;90.25
61528;BME280;47395;42.032;-8.634;2022-10-16T03:47:06;100517.81;;;18.77;89.97
61528;BME280;47395;42.032;-8.634;2022-10-16T03:49:07;100513.91;;;18.82;89.69
61528;BME280;47395;42.032;-8.634;2022-10-16T03:51:08;100509.38;;;18.72;90.13
61528;BME280;47395;42.032;-8.634;2022-10-16T03:53:09;100504.34;;;18.79;89.81
61528;BME280;47395;42.032;-8.634;2022-10-16T03:55:10;100508.00;;;18.78;90.33
61528;BME280;47395;42.032;-8.634;2022-10-16T03:57:11;100507.44;;;18.84;90.39
61528;BME280;47395;42.032;-8.634;2022-10-16T03:59:11;100502.78;;;18.76;90.38
61528;BME280;47395;42.032;-8.634;2022-10-16T04:01:12;100509.94;;;18.76;91.16
61528;BME280;47395;42.032;-8.634;2022-10-16T04:03:13;100510.06;;;18.74;91.26
61528;BME280;47395;42.032;-8.634;2022-10-16T04:05:14;100508.50;;;18.72;91.54
61528;BME280;47395;42.032;-8.634;2022-10-16T04:07:15;100512.03;;;18.72;91.67
61528;BME280;47395;42.032;-8.634;2022-10-16T04:09:16;100519.47;;;18.69;91.86
61528;BME280;47395;42.032;-8.634;2022-10-16T04:11:17;100516.94;;;18.67;92.09
61528;BME280;47395;42.032;-8.634;2022-10-16T04:13:18;100515.91;;;18.58;92.50
61528;BME280;47395;42.032;-8.634;2022-10-16T04:15:19;100517.94;;;18.66;92.50
61528;BME280;47395;42.032;-8.634;2022-10-16T04:17:19;100513.69;;;18.63;92.35
61528;BME280;47395;42.032;-8.634;2022-10-16T04:19:20;100510.88;;;18.65;92.13
61528;BME280;47395;42.032;-8.634;2022-10-16T04:21:21;100514.28;;;18.67;92.29
61528;BME280;47395;42.032;-8.634;2022-10-16T04:23:22;100512.72;;;18.74;91.81
61528;BME280;47395;42.032;-8.634;2022-10-16T04:25:24;100517.75;;;18.68;92.18
61528;BME280;47395;42.032;-8.634;2022-10-16T04:27:25;100513.03;;;18.71;92.35
61528;BME280;47395;42.032;-8.634;2022-10-16T04:29:26;100519.88;;;18.64;92.46
61528;BME280;47395;42.032;-8.634;2022-10-16T04:31:26;100506.69;;;18.72;92.01
61528;BME280;47395;42.032;-8.634;2022-10-16T04:33:27;100509.75;;;18.68;92.36
61528;BME280;47395;42.032;-8.634;2022-10-16T04:35:28;100517.88;;;18.56;93.18
61528;BME280;47395;42.032;-8.634;2022-10-16T04:37:29;100514.94;;;18.59;93.11
61528;BME280;47395;42.032;-8.634;2022-10-16T04:39:30;100514.34;;;18.56;93.51
61528;BME280;47395;42.032;-8.634;2022-10-16T04:41:31;100509.06;;;18.65;93.00
61528;BME280;47395;42.032;-8.634;2022-10-16T04:43:32;100507.94;;;18.68;92.78
61528;BME280;47395;42.032;-8.634;2022-10-16T04:45:33;100505.69;;;18.63;92.92
61528;BME280;47395;42.032;-8.634;2022-10-16T04:47:34;100511.03;;;18.63;92.54
61528;BME280;47395;42.032;-8.634;2022-10-16T04:49:34;100510.19;;;18.63;92.91
61528;BME280;47395;42.032;-8.634;2022-10-16T04:51:35;100512.59;;;18.66;92.73
61528;BME280;47395;42.032;-8.634;2022-10-16T04:53:36;100506.09;;;18.59;93.15
61528;BME280;47395;42.032;-8.634;2022-10-16T04:55:37;100504.88;;;18.73;92.57
61528;BME280;47395;42.032;-8.634;2022-10-16T04:57:38;100506.75;;;18.82;92.19
61528;BME280;47395;42.032;-8.634;2022-10-16T04:59:39;100508.56;;;18.82;91.74
61528;BME280;47395;42.032;-8.634;2022-10-16T05:01:40;100503.72;;;18.65;92.44
61528;BME280;47395;42.032;-8.634;2022-10-16T05:03:40;100515.19;;;18.56;92.87
61528;BME280;47395;42.032;-8.634;2022-10-16T05:05:45;100509.88;;;18.56;92.91
61528;BME280;47395;42.032;-8.634;2022-10-16T05:07:47;100508.44;;;18.52;93.46
61528;BME280;47395;42.032;-8.634;2022-10-16T05:09:48;100506.31;;;18.46;93.65
61528;BME280;47395;42.032;-8.634;2022-10-16T05:11:49;100516.78;;;18.37;93.63
61528;BME280;47395;42.032;-8.634;2022-10-16T05:13:50;100513.66;;;18.32;94.28
61528;BME280;47395;42.032;-8.634;2022-10-16T05:15:50;100513.53;;;18.34;94.15
61528;BME280;47395;42.032;-8.634;2022-10-16T05:17:55;100514.44;;;18.44;94.28
61528;BME280;47395;42.032;-8.634;2022-10-16T05:19:56;100518.22;;;18.42;94.35
61528;BME280;47395;42.032;-8.634;2022-10-16T05:21:57;100515.94;;;18.37;94.59
61528;BME280;47395;42.032;-8.634;2022-10-16T05:23:57;100506.38;;;18.34;94.43
61528;BME280;47395;42.032;-8.634;2022-10-16T05:25:59;100513.94;;;18.29;94.23
61528;BME280;47395;42.032;-8.634;2022-10-16T05:28:00;100511.66;;;18.24;94.09
61528;BME280;47395;42.032;-8.634;2022-10-16T05:30:01;100508.00;;;18.25;94.05
61528;BME280;47395;42.032;-8.634;2022-10-16T05:32:02;100511.38;;;18.27;94.23
61528;BME280;47395;42.032;-8.634;2022-10-16T05:34:03;100510.59;;;18.37;93.34
61528;BME280;47395;42.032;-8.634;2022-10-16T05:36:08;100512.94;;;18.30;93.75
61528;BME280;47395;42.032;-8.634;2022-10-16T05:38:09;100507.50;;;18.32;93.46
61528;BME280;47395;42.032;-8.634;2022-10-16T05:40:10;100510.03;;;18.33;92.68
61528;BME280;47395;42.032;-8.634;2022-10-16T05:42:12;100512.50;;;18.25;92.94
61528;BME280;47395;42.032;-8.634;2022-10-16T05:44:13;100522.91;;;18.28;92.34
61528;BME280;47395;42.032;-8.634;2022-10-16T05:46:13;100526.81;;;18.24;91.35
61528;BME280;47395;42.032;-8.634;2022-10-16T05:48:15;100518.66;;;18.25;91.06
61528;BME280;47395;42.032;-8.634;2022-10-16T05:50:15;100518.16;;;18.32;90.26
61528;BME280;47395;42.032;-8.634;2022-10-16T05:52:16;100523.63;;;18.30;90.74
61528;BME280;47395;42.032;-8.634;2022-10-16T05:54:17;100529.66;;;18.32;89.68
61528;BME280;47395;42.032;-8.634;2022-10-16T05:56:18;100528.81;;;18.32;89.86
61528;BME280;47395;42.032;-8.634;2022-10-16T05:58:19;100536.41;;;18.36;89.15
61528;BME280;47395;42.032;-8.634;2022-10-16T06:00:20;100533.16;;;18.33;89.05
61528;BME280;47395;42.032;-8.634;2022-10-16T06:02:21;100525.94;;;18.45;88.92
61528;BME280;47395;42.032;-8.634;2022-10-16T06:04:22;100523.22;;;18.35;89.07
61528;BME280;47395;42.032;-8.634;2022-10-16T06:06:25;100517.50;;;18.39;88.64
61528;BME280;47395;42.032;-8.634;2022-10-16T06:08:26;100518.91;;;18.44;88.32
61528;BME280;47395;42.032;-8.634;2022-10-16T06:10:27;100522.13;;;18.37;88.97
61528;BME280;47395;42.032;-8.634;2022-10-16T06:12:29;100522.38;;;18.34;89.05
61528;BME280;47395;42.032;-8.634;2022-10-16T06:14:30;100524.31;;;18.32;89.28
61528;BME280;47395;42.032;-8.634;2022-10-16T06:16:31;100529.00;;;18.40;88.62
61528;BME280;47395;42.032;-8.634;2022-10-16T06:18:32;100534.59;;;18.37;88.98
61528;BME280;47395;42.032;-8.634;2022-10-16T06:20:33;100532.25;;;18.44;88.87
61528;BME280;47395;42.032;-8.634;2022-10-16T06:22:33;100538.81;;;18.39;89.04
61528;BME280;47395;42.032;-8.634;2022-10-16T06:24:34;100539.69;;;18.40;89.43
61528;BME280;47395;42.032;-8.634;2022-10-16T06:26:35;100541.38;;;18.41;89.33
61528;BME280;47395;42.032;-8.634;2022-10-16T06:28:36;100542.66;;;18.47;88.77
61528;BME280;47395;42.032;-8.634;2022-10-16T06:30:37;100543.47;;;18.37;89.16
61528;BME280;47395;42.032;-8.634;2022-10-16T06:32:38;100545.94;;;18.29;89.77
61528;BME280;47395;42.032;-8.634;2022-10-16T06:34:39;100540.41;;;18.21;89.81
61528;BME280;47395;42.032;-8.634;2022-10-16T06:36:41;100546.44;;;18.23;89.92
61528;BME280;47395;42.032;-8.634;2022-10-16T06:38:44;100546.72;;;18.20;90.13
61528;BME280;47395;42.032;-8.634;2022-10-16T06:40:45;100545.81;;;18.31;89.77
61528;BME280;47395;42.032;-8.634;2022-10-16T06:42:45;100545.06;;;18.29;89.55
61528;BME280;47395;42.032;-8.634;2022-10-16T06:44:46;100540.06;;;18.35;89.42
61528;BME280;47395;42.032;-8.634;2022-10-16T06:46:47;100538.81;;;18.39;89.13
61528;BME280;47395;42.032;-8.634;2022-10-16T06:48:48;100540.91;;;18.36;89.07
61528;BME280;47395;42.032;-8.634;2022-10-16T06:51:06;100536.69;;;18.33;89.21
61528;BME280;47395;42.032;-8.634;2022-10-16T06:53:07;100533.84;;;18.25;88.52
61528;BME280;47395;42.032;-8.634;2022-10-16T06:55:08;100523.41;;;18.22;88.49
61528;BME280;47395;42.032;-8.634;2022-10-16T06:57:09;100529.72;;;18.21;88.33
61528;BME280;47395;42.032;-8.634;2022-10-16T06:59:10;100515.66;;;18.19;88.42
61528;BME280;47395;42.032;-8.634;2022-10-16T07:01:11;100529.72;;;18.21;88.39
61528;BME280;47395;42.032;-8.634;2022-10-16T07:03:12;100534.50;;;18.17;87.34
61528;BME280;47395;42.032;-8.634;2022-10-16T07:05:14;100531.75;;;18.29;86.90
61528;BME280;47395;42.032;-8.634;2022-10-16T07:07:14;100540.63;;;18.39;86.13
61528;BME280;47395;42.032;-8.634;2022-10-16T07:09:15;100540.31;;;18.32;86.01
61528;BME280;47395;42.032;-8.634;2022-10-16T07:11:18;100549.25;;;18.43;86.39
61528;BME280;47395;42.032;-8.634;2022-10-16T07:13:19;100548.00;;;18.25;86.21
61528;BME280;47395;42.032;-8.634;2022-10-16T07:15:20;100545.28;;;18.37;86.24
61528;BME280;47395;42.032;-8.634;2022-10-16T07:17:21;100546.25;;;18.36;86.35
61528;BME280;47395;42.032;-8.634;2022-10-16T07:19:22;100552.59;;;18.45;86.37
61528;BME280;47395;42.032;-8.634;2022-10-16T07:21:23;100544.59;;;18.45;85.44
61528;BME280;47395;42.032;-8.634;2022-10-16T07:23:25;100548.00;;;18.47;85.78
61528;BME280;47395;42.032;-8.634;2022-10-16T07:25:26;100557.34;;;18.62;84.53
61528;BME280;47395;42.032;-8.634;2022-10-16T07:27:28;100551.81;;;18.54;84.68
61528;BME280;47395;42.032;-8.634;2022-10-16T07:29:28;100556.13;;;18.45;84.53
61528;BME280;47395;42.032;-8.634;2022-10-16T07:31:29;100556.97;;;18.67;84.29
61528;BME280;47395;42.032;-8.634;2022-10-16T07:33:31;100548.91;;;18.57;83.35
61528;BME280;47395;42.032;-8.634;2022-10-16T07:35:32;100551.41;;;18.80;82.93
61528;BME280;47395;42.032;-8.634;2022-10-16T07:37:33;100550.69;;;18.78;82.69
61528;BME280;47395;42.032;-8.634;2022-10-16T07:39:34;100550.50;;;18.70;82.50
61528;BME280;47395;42.032;-8.634;2022-10-16T07:41:35;100541.44;;;18.82;81.69
61528;BME280;47395;42.032;-8.634;2022-10-16T07:43:37;100549.63;;;18.90;81.26
61528;BME280;47395;42.032;-8.634;2022-10-16T07:45:45;100543.81;;;19.07;80.43
61528;BME280;47395;42.032;-8.634;2022-10-16T07:47:47;100555.41;;;18.96;80.86
61528;BME280;47395;42.032;-8.634;2022-10-16T07:49:47;100563.38;;;18.86;80.67
61528;BME280;47395;42.032;-8.634;2022-10-16T07:51:49;100565.66;;;18.90;80.99
61528;BME280;47395;42.032;-8.634;2022-10-16T07:53:49;100559.84;;;19.07;80.49
61528;BME280;47395;42.032;-8.634;2022-10-16T07:55:52;100559.72;;;19.08;80.16
61528;BME280;47395;42.032;-8.634;2022-10-16T07:57:52;100572.56;;;19.24;79.73
61528;BME280;47395;42.032;-8.634;2022-10-16T07:59:53;100575.94;;;19.36;78.79
61528;BME280;47395;42.032;-8.634;2022-10-16T08:01:54;100577.41;;;19.50;78.19
61528;BME280;47395;42.032;-8.634;2022-10-16T08:03:55;100583.13;;;19.46;77.48
61528;BME280;47395;42.032;-8.634;2022-10-16T08:05:57;100585.16;;;19.63;77.27
61528;BME280;47395;42.032;-8.634;2022-10-16T08:07:58;100596.00;;;19.72;76.79
61528;BME280;47395;42.032;-8.634;2022-10-16T08:09:59;100594.13;;;19.52;77.27
61528;BME280;47395;42.032;-8.634;2022-10-16T08:11:59;100599.50;;;19.62;77.17
61528;BME280;47395;42.032;-8.634;2022-10-16T08:14:00;100601.97;;;19.44;78.18
61528;BME280;47395;42.032;-8.634;2022-10-16T08:16:01;100602.94;;;19.33;78.21
61528;BME280;47395;42.032;-8.634;2022-10-16T08:18:04;100607.09;;;19.16;79.29
61528;BME280;47395;42.032;-8.634;2022-10-16T08:20:06;100605.03;;;19.29;79.50
61528;BME280;47395;42.032;-8.634;2022-10-16T08:22:07;100603.44;;;19.17;79.32
61528;BME280;47395;42.032;-8.634;2022-10-16T08:24:07;100609.00;;;19.35;78.84
61528;BME280;47395;42.032;-8.634;2022-10-16T08:26:09;100601.72;;;19.47;78.26
61528;BME280;47395;42.032;-8.634;2022-10-16T08:28:10;100605.59;;;19.33;77.92
61528;BME280;47395;42.032;-8.634;2022-10-16T08:30:12;100609.03;;;19.55;77.58
61528;BME280;47395;42.032;-8.634;2022-10-16T08:32:13;100611.38;;;19.38;78.18
61528;BME280;47395;42.032;-8.634;2022-10-16T08:34:14;100610.47;;;19.59;77.26
61528;BME280;47395;42.032;-8.634;2022-10-16T08:36:16;100618.56;;;19.48;77.09
61528;BME280;47395;42.032;-8.634;2022-10-16T08:38:17;100616.88;;;19.37;77.03
61528;BME280;47395;42.032;-8.634;2022-10-16T08:40:24;100627.09;;;19.31;77.14
61528;BME280;47395;42.032;-8.634;2022-10-16T08:43:42;100633.03;;;19.35;77.58
61528;BME280;47395;42.032;-8.634;2022-10-16T08:45:33;100628.31;;;19.17;78.48
61528;BME280;47395;42.032;-8.634;2022-10-16T08:48:13;100629.34;;;19.26;78.10
61528;BME280;47395;42.032;-8.634;2022-10-16T08:50:12;100631.91;;;19.38;78.17
61528;BME280;47395;42.032;-8.634;2022-10-16T08:52:14;100623.59;;;19.31;78.04
61528;BME280;47395;42.032;-8.634;2022-10-16T08:54:36;100629.28;;;19.16;78.68
61528;BME280;47395;42.032;-8.634;2022-10-16T08:56:41;100622.56;;;19.22;78.48
61528;BME280;47395;42.032;-8.634;2022-10-16T08:58:41;100631.47;;;19.33;77.88
61528;BME280;47395;42.032;-8.634;2022-10-16T09:00:46;100634.66;;;19.26;77.83
61528;BME280;47395;42.032;-8.634;2022-10-16T09:02:58;100632.31;;;19.33;78.34
61528;BME280;47395;42.032;-8.634;2022-10-16T09:11:01;100650.00;;;19.24;78.60
61528;BME280;47395;42.032;-8.634;2022-10-16T09:13:23;100653.69;;;19.33;78.23
61528;BME280;47395;42.032;-8.634;2022-10-16T09:15:40;100650.31;;;19.31;78.53
61528;BME280;47395;42.032;-8.634;2022-10-16T09:18:37;100653.13;;;19.29;78.42
61528;BME280;47395;42.032;-8.634;2022-10-16T09:20:38;100657.22;;;19.34;78.48
61528;BME280;47395;42.032;-8.634;2022-10-16T09:22:41;100639.34;;;19.34;78.15
61528;BME280;47395;42.032;-8.634;2022-10-16T09:24:42;100631.13;;;19.57;77.73
61528;BME280;47395;42.032;-8.634;2022-10-16T09:26:43;100629.00;;;19.51;77.63
61528;BME280;47395;42.032;-8.634;2022-10-16T09:28:44;100621.41;;;19.56;76.97
61528;BME280;47395;42.032;-8.634;2022-10-16T09:30:45;100625.03;;;20.26;75.48
61528;BME280;47395;42.032;-8.634;2022-10-16T09:32:51;100619.19;;;20.90;71.80
61528;BME280;47395;42.032;-8.634;2022-10-16T09:34:55;100611.34;;;20.68;71.86
61528;BME280;47395;42.032;-8.634;2022-10-16T09:37:03;100605.84;;;20.70;71.68
61528;BME280;47395;42.032;-8.634;2022-10-16T09:39:06;100612.41;;;20.95;70.74
61528;BME280;47395;42.032;-8.634;2022-10-16T09:41:16;100606.94;;;20.87;71.28
61528;BME280;47395;42.032;-8.634;2022-10-16T09:45:43;100617.53;;;20.69;71.56
61528;BME280;47395;42.032;-8.634;2022-10-16T09:47:44;100621.38;;;20.46;72.37
61528;BME280;47395;42.032;-8.634;2022-10-16T09:50:22;100614.63;;;20.03;73.80
61528;BME280;47395;42.032;-8.634;2022-10-16T09:52:24;100638.25;;;20.07;73.41
61528;BME280;47395;42.032;-8.634;2022-10-16T09:54:25;100628.56;;;20.16;73.67
61528;BME280;47395;42.032;-8.634;2022-10-16T09:56:34;100634.28;;;19.82;74.96
61528;BME280;47395;42.032;-8.634;2022-10-16T09:58:36;100630.13;;;20.19;74.53
61528;BME280;47395;42.032;-8.634;2022-10-16T10:00:41;100623.50;;;20.13;74.29
61528;BME280;47395;42.032;-8.634;2022-10-16T10:02:43;100633.06;;;20.16;74.56
61528;BME280;47395;42.032;-8.634;2022-10-16T10:04:53;100649.81;;;19.98;75.21
61528;BME280;47395;42.032;-8.634;2022-10-16T10:06:56;100641.38;;;20.03;74.99
61528;BME280;47395;42.032;-8.634;2022-10-16T10:11:55;100642.00;;;19.75;76.00
61528;BME280;47395;42.032;-8.634;2022-10-16T10:14:09;100638.75;;;19.72;76.51
61528;BME280;47395;42.032;-8.634;2022-10-16T10:16:12;100643.41;;;19.79;76.10
61528;BME280;47395;42.032;-8.634;2022-10-16T10:18:23;100638.19;;;19.78;76.26
61528;BME280;47395;42.032;-8.634;2022-10-16T10:20:32;100642.19;;;19.93;76.05
61528;BME280;47395;42.032;-8.634;2022-10-16T10:22:45;100636.84;;;19.93;76.28
61528;BME280;47395;42.032;-8.634;2022-10-16T10:26:16;100623.06;;;19.98;76.19
61528;BME280;47395;42.032;-8.634;2022-10-16T10:36:41;100630.13;;;19.99;75.85
61528;BME280;47395;42.032;-8.634;2022-10-16T10:39:25;100621.50;;;20.25;74.95
61528;BME280;47395;42.032;-8.634;2022-10-16T10:41:39;100633.50;;;20.31;74.55
61528;BME280;47395;42.032;-8.634;2022-10-16T10:44:18;100641.81;;;20.18;74.99
61528;BME280;47395;42.032;-8.634;2022-10-16T10:51:55;100646.44;;;20.35;76.49
61528;BME280;47395;42.032;-8.634;2022-10-16T10:54:14;100648.53;;;20.02;78.53
61528;BME280;47395;42.032;-8.634;2022-10-16T10:56:43;100648.16;;;19.66;80.28
61528;BME280;47395;42.032;-8.634;2022-10-16T10:59:02;100657.25;;;19.53;81.40
61528;BME280;47395;42.032;-8.634;2022-10-16T11:01:14;100652.13;;;19.72;81.60
61528;BME280;47395;42.032;-8.634;2022-10-16T11:04:05;100658.25;;;19.52;83.08
61528;BME280;47395;42.032;-8.634;2022-10-16T11:06:19;100648.94;;;19.37;83.38
61528;BME280;47395;42.032;-8.634;2022-10-16T11:08:38;100650.31;;;19.31;83.31
61528;BME280;47395;42.032;-8.634;2022-10-16T11:10:54;100650.75;;;19.36;84.65
61528;BME280;47395;42.032;-8.634;2022-10-16T11:15:36;100652.75;;;19.44;82.75
61528;BME280;47395;42.032;-8.634;2022-10-16T11:18:08;100653.97;;;19.30;84.00
61528;BME280;47395;42.032;-8.634;2022-10-16T11:20:27;100650.34;;;19.10;84.93